KTYS

McGhee Tyson Airport

Airport
ICAO code
KTYS
Summary
ICAO Region
NAM
ICAO Territory
Location

Knoxville, Tennessee,

Coordinates
35° 48' 39" N , 83° 59' 38" W
KCC
Airport LOS
Parallel Runway Operation
Airport WX
Cumulonimbus
Metar
Observation
KTYS 071753Z 29007KT 10SM FEW055 BKN250 24/10 A3016 RMK AO2 SLP206 T02390100 10244 20094 58011 $
Station
Knoxville, McGhee Tyson Airport
Date/Time
2022-10-07 17:53:00
Wind direction
290°
Wind speed
07 kts
Lowest cloud amount
few clouds
Temperature
23.9°C
Dew point
10°C
Humidity
41%
Weather condition
n/a

Description

McGhee Tyson Airport is a public and military (ANG) use airport located 19 km south of the central business district of Knoxville, in Blount County, Tennessee.

Climatology

Humid “subtropical” climate (Köppen climate classification Cfa) - characterized by hot, humid summers and cool winters. Significant amounts of precipitation occur in all seasons in most areas. Winter rainfall (and sometimes snowfall) is associated with large storms that the westerlies steer from west to east. Most summer rainfall occurs during thunderstorms and occasional tropical storms (hurricanes).

Runways

Designator Length Width Surface Rops
05R/23L 2743 46 ASP Yes/Yes
05L/23R 2746 46 CON Yes/Yes

Airport map

Aerial View

SKYbrary Partners:

Safety knowledge contributed by: